sensor_id;sensor_type;location;lat;lon;timestamp;P1;durP1;ratioP1;P2;durP2;ratioP2
57107;SDS011;42987;52.916;6.542;2023-04-29T00:02:20;72.75;;;57.67;;
57107;SDS011;42987;52.916;6.542;2023-04-29T00:04:45;74.13;;;60.00;;
57107;SDS011;42987;52.916;6.542;2023-04-29T00:07:11;73.60;;;58.90;;
57107;SDS011;42987;52.916;6.542;2023-04-29T00:09:40;73.93;;;56.33;;
57107;SDS011;42987;52.916;6.542;2023-04-29T00:12:06;67.45;;;55.78;;
57107;SDS011;42987;52.916;6.542;2023-04-29T00:14:31;71.25;;;58.83;;
57107;SDS011;42987;52.916;6.542;2023-04-29T00:16:57;72.65;;;58.38;;
57107;SDS011;42987;52.916;6.542;2023-04-29T00:19:23;81.43;;;61.20;;
57107;SDS011;42987;52.916;6.542;2023-04-29T00:21:49;70.88;;;58.17;;
57107;SDS011;42987;52.916;6.542;2023-04-29T00:24:16;69.65;;;57.58;;
57107;SDS011;42987;52.916;6.542;2023-04-29T00:26:42;68.25;;;55.50;;
57107;SDS011;42987;52.916;6.542;2023-04-29T00:29:07;71.07;;;54.20;;
57107;SDS011;42987;52.916;6.542;2023-04-29T00:31:33;66.65;;;53.35;;
57107;SDS011;42987;52.916;6.542;2023-04-29T00:33:59;85.13;;;61.42;;
57107;SDS011;42987;52.916;6.542;2023-04-29T00:36:25;72.45;;;57.72;;
57107;SDS011;42987;52.916;6.542;2023-04-29T00:38:50;68.57;;;55.58;;
57107;SDS011;42987;52.916;6.542;2023-04-29T00:41:16;59.25;;;50.72;;
57107;SDS011;42987;52.916;6.542;2023-04-29T00:43:42;63.88;;;50.65;;
57107;SDS011;42987;52.916;6.542;2023-04-29T00:46:08;67.70;;;51.30;;
57107;SDS011;42987;52.916;6.542;2023-04-29T00:48:34;66.78;;;54.33;;
57107;SDS011;42987;52.916;6.542;2023-04-29T00:51:00;59.47;;;50.38;;
57107;SDS011;42987;52.916;6.542;2023-04-29T00:53:29;75.43;;;56.77;;
57107;SDS011;42987;52.916;6.542;2023-04-29T00:55:56;61.85;;;50.13;;
57107;SDS011;42987;52.916;6.542;2023-04-29T00:58:25;56.80;;;48.55;;
57107;SDS011;42987;52.916;6.542;2023-04-29T01:00:57;59.03;;;49.30;;
57107;SDS011;42987;52.916;6.542;2023-04-29T01:03:25;62.25;;;50.85;;
57107;SDS011;42987;52.916;6.542;2023-04-29T01:05:55;60.10;;;51.47;;
57107;SDS011;42987;52.916;6.542;2023-04-29T01:08:49;67.97;;;51.35;;
57107;SDS011;42987;52.916;6.542;2023-04-29T01:11:27;66.20;;;53.72;;
57107;SDS011;42987;52.916;6.542;2023-04-29T01:14:03;64.47;;;50.88;;
57107;SDS011;42987;52.916;6.542;2023-04-29T01:16:33;59.50;;;51.17;;
57107;SDS011;42987;52.916;6.542;2023-04-29T01:21:52;61.83;;;51.88;;
57107;SDS011;42987;52.916;6.542;2023-04-29T01:24:17;67.75;;;53.92;;
57107;SDS011;42987;52.916;6.542;2023-04-29T01:26:48;68.65;;;55.58;;
57107;SDS011;42987;52.916;6.542;2023-04-29T01:31:57;67.82;;;54.10;;
57107;SDS011;42987;52.916;6.542;2023-04-29T01:34:31;70.15;;;55.05;;
57107;SDS011;42987;52.916;6.542;2023-04-29T01:37:09;68.47;;;52.53;;
57107;SDS011;42987;52.916;6.542;2023-04-29T01:42:35;61.45;;;50.25;;
57107;SDS011;42987;52.916;6.542;2023-04-29T01:45:15;63.28;;;49.42;;
57107;SDS011;42987;52.916;6.542;2023-04-29T01:47:45;63.08;;;50.47;;
57107;SDS011;42987;52.916;6.542;2023-04-29T01:50:11;61.67;;;47.97;;
57107;SDS011;42987;52.916;6.542;2023-04-29T01:52:40;62.42;;;47.05;;
57107;SDS011;42987;52.916;6.542;2023-04-29T01:55:06;59.92;;;46.22;;
57107;SDS011;42987;52.916;6.542;2023-04-29T01:57:32;58.08;;;44.95;;
57107;SDS011;42987;52.916;6.542;2023-04-29T01:59:58;55.20;;;44.85;;
57107;SDS011;42987;52.916;6.542;2023-04-29T02:02:29;55.05;;;42.78;;
57107;SDS011;42987;52.916;6.542;2023-04-29T02:04:54;54.40;;;45.33;;
57107;SDS011;42987;52.916;6.542;2023-04-29T02:07:20;49.90;;;41.13;;
57107;SDS011;42987;52.916;6.542;2023-04-29T02:09:46;44.08;;;38.63;;
57107;SDS011;42987;52.916;6.542;2023-04-29T02:12:12;48.65;;;40.22;;
57107;SDS011;42987;52.916;6.542;2023-04-29T02:14:38;49.90;;;40.03;;
57107;SDS011;42987;52.916;6.542;2023-04-29T02:17:04;42.55;;;37.60;;
57107;SDS011;42987;52.916;6.542;2023-04-29T02:19:29;47.17;;;38.30;;
57107;SDS011;42987;52.916;6.542;2023-04-29T02:21:55;49.28;;;37.50;;
57107;SDS011;42987;52.916;6.542;2023-04-29T02:24:21;42.50;;;34.80;;
57107;SDS011;42987;52.916;6.542;2023-04-29T02:26:46;48.72;;;37.97;;
57107;SDS011;42987;52.916;6.542;2023-04-29T02:29:12;42.17;;;37.10;;
57107;SDS011;42987;52.916;6.542;2023-04-29T02:31:38;42.35;;;35.78;;
57107;SDS011;42987;52.916;6.542;2023-04-29T02:34:04;45.92;;;35.88;;
57107;SDS011;42987;52.916;6.542;2023-04-29T02:36:30;41.90;;;36.13;;
57107;SDS011;42987;52.916;6.542;2023-04-29T02:38:56;46.10;;;35.05;;
57107;SDS011;42987;52.916;6.542;2023-04-29T02:41:22;48.50;;;37.58;;
57107;SDS011;42987;52.916;6.542;2023-04-29T02:43:49;43.15;;;37.13;;
57107;SDS011;42987;52.916;6.542;2023-04-29T02:46:15;42.38;;;34.15;;
57107;SDS011;42987;52.916;6.542;2023-04-29T02:48:42;43.40;;;34.45;;
57107;SDS011;42987;52.916;6.542;2023-04-29T02:51:08;46.25;;;37.50;;
57107;SDS011;42987;52.916;6.542;2023-04-29T02:53:34;41.25;;;36.40;;
57107;SDS011;42987;52.916;6.542;2023-04-29T02:56:00;44.35;;;36.58;;
57107;SDS011;42987;52.916;6.542;2023-04-29T02:58:26;45.25;;;36.42;;
57107;SDS011;42987;52.916;6.542;2023-04-29T03:00:51;42.28;;;36.05;;
57107;SDS011;42987;52.916;6.542;2023-04-29T03:03:17;45.60;;;36.42;;
57107;SDS011;42987;52.916;6.542;2023-04-29T03:05:43;45.08;;;35.30;;
57107;SDS011;42987;52.916;6.542;2023-04-29T03:08:09;41.70;;;35.50;;
57107;SDS011;42987;52.916;6.542;2023-04-29T03:10:38;41.20;;;35.08;;
57107;SDS011;42987;52.916;6.542;2023-04-29T03:13:04;39.90;;;34.03;;
57107;SDS011;42987;52.916;6.542;2023-04-29T03:15:29;40.40;;;34.30;;
57107;SDS011;42987;52.916;6.542;2023-04-29T03:17:55;45.92;;;35.55;;
57107;SDS011;42987;52.916;6.542;2023-04-29T03:20:21;44.92;;;35.97;;
57107;SDS011;42987;52.916;6.542;2023-04-29T03:22:47;43.40;;;34.60;;
57107;SDS011;42987;52.916;6.542;2023-04-29T03:25:13;43.53;;;36.38;;
57107;SDS011;42987;52.916;6.542;2023-04-29T03:27:39;38.25;;;33.67;;
57107;SDS011;42987;52.916;6.542;2023-04-29T03:30:05;47.08;;;35.20;;
57107;SDS011;42987;52.916;6.542;2023-04-29T03:32:31;45.65;;;35.30;;
57107;SDS011;42987;52.916;6.542;2023-04-29T03:34:57;43.05;;;36.97;;
57107;SDS011;42987;52.916;6.542;2023-04-29T03:37:23;47.75;;;37.38;;
57107;SDS011;42987;52.916;6.542;2023-04-29T03:39:49;47.45;;;37.40;;
57107;SDS011;42987;52.916;6.542;2023-04-29T03:42:15;48.28;;;38.95;;
57107;SDS011;42987;52.916;6.542;2023-04-29T03:44:41;57.42;;;42.55;;
57107;SDS011;42987;52.916;6.542;2023-04-29T03:47:07;43.38;;;36.08;;
57107;SDS011;42987;52.916;6.542;2023-04-29T03:49:33;58.25;;;42.22;;
57107;SDS011;42987;52.916;6.542;2023-04-29T03:51:58;49.22;;;38.55;;
57107;SDS011;42987;52.916;6.542;2023-04-29T03:54:24;47.45;;;37.30;;
57107;SDS011;42987;52.916;6.542;2023-04-29T03:56:51;58.20;;;39.88;;
57107;SDS011;42987;52.916;6.542;2023-04-29T03:59:16;46.63;;;36.38;;
57107;SDS011;42987;52.916;6.542;2023-04-29T04:01:42;54.33;;;43.25;;
57107;SDS011;42987;52.916;6.542;2023-04-29T04:04:08;53.13;;;40.28;;
57107;SDS011;42987;52.916;6.542;2023-04-29T04:06:33;56.63;;;43.45;;
57107;SDS011;42987;52.916;6.542;2023-04-29T04:08:59;50.15;;;40.47;;
57107;SDS011;42987;52.916;6.542;2023-04-29T04:11:25;55.78;;;42.38;;
57107;SDS011;42987;52.916;6.542;2023-04-29T04:13:51;61.40;;;44.55;;
57107;SDS011;42987;52.916;6.542;2023-04-29T04:16:16;52.55;;;41.28;;
57107;SDS011;42987;52.916;6.542;2023-04-29T04:18:42;52.90;;;41.65;;
57107;SDS011;42987;52.916;6.542;2023-04-29T04:21:08;47.20;;;37.70;;
57107;SDS011;42987;52.916;6.542;2023-04-29T04:23:35;52.30;;;40.70;;
57107;SDS011;42987;52.916;6.542;2023-04-29T04:26:04;50.13;;;38.50;;
57107;SDS011;42987;52.916;6.542;2023-04-29T04:28:30;44.90;;;35.25;;
57107;SDS011;42987;52.916;6.542;2023-04-29T04:30:56;44.47;;;36.33;;
57107;SDS011;42987;52.916;6.542;2023-04-29T04:33:23;45.42;;;34.50;;
57107;SDS011;42987;52.916;6.542;2023-04-29T04:35:51;41.70;;;30.83;;
57107;SDS011;42987;52.916;6.542;2023-04-29T04:38:17;43.85;;;34.58;;
57107;SDS011;42987;52.916;6.542;2023-04-29T04:40:43;41.95;;;33.17;;
57107;SDS011;42987;52.916;6.542;2023-04-29T04:43:09;47.67;;;33.28;;
57107;SDS011;42987;52.916;6.542;2023-04-29T04:45:35;41.97;;;30.50;;
57107;SDS011;42987;52.916;6.542;2023-04-29T04:48:01;42.53;;;32.42;;
57107;SDS011;42987;52.916;6.542;2023-04-29T04:50:27;44.80;;;32.25;;
57107;SDS011;42987;52.916;6.542;2023-04-29T04:52:53;39.65;;;30.70;;
57107;SDS011;42987;52.916;6.542;2023-04-29T04:55:21;37.83;;;29.52;;
57107;SDS011;42987;52.916;6.542;2023-04-29T04:57:47;37.58;;;30.45;;
57107;SDS011;42987;52.916;6.542;2023-04-29T05:00:13;38.17;;;28.58;;
57107;SDS011;42987;52.916;6.542;2023-04-29T05:02:39;39.80;;;29.83;;
57107;SDS011;42987;52.916;6.542;2023-04-29T05:05:05;37.38;;;28.55;;
57107;SDS011;42987;52.916;6.542;2023-04-29T05:07:31;41.38;;;28.10;;
57107;SDS011;42987;52.916;6.542;2023-04-29T05:10:00;36.40;;;28.58;;
57107;SDS011;42987;52.916;6.542;2023-04-29T05:12:29;33.85;;;25.75;;
57107;SDS011;42987;52.916;6.542;2023-04-29T05:14:55;37.57;;;27.63;;
57107;SDS011;42987;52.916;6.542;2023-04-29T05:17:21;33.72;;;25.27;;
57107;SDS011;42987;52.916;6.542;2023-04-29T05:19:47;34.63;;;26.35;;
57107;SDS011;42987;52.916;6.542;2023-04-29T05:22:13;37.42;;;26.17;;
57107;SDS011;42987;52.916;6.542;2023-04-29T05:24:39;33.10;;;25.00;;
57107;SDS011;42987;52.916;6.542;2023-04-29T05:27:05;37.65;;;27.00;;
57107;SDS011;42987;52.916;6.542;2023-04-29T05:29:30;35.95;;;27.13;;
57107;SDS011;42987;52.916;6.542;2023-04-29T05:31:56;35.63;;;26.42;;
57107;SDS011;42987;52.916;6.542;2023-04-29T05:34:23;32.42;;;25.75;;
57107;SDS011;42987;52.916;6.542;2023-04-29T05:36:49;32.72;;;25.55;;
57107;SDS011;42987;52.916;6.542;2023-04-29T05:39:15;30.10;;;24.55;;
57107;SDS011;42987;52.916;6.542;2023-04-29T05:41:44;30.92;;;24.10;;
57107;SDS011;42987;52.916;6.542;2023-04-29T05:44:10;30.13;;;23.35;;
57107;SDS011;42987;52.916;6.542;2023-04-29T05:46:35;30.02;;;23.10;;
57107;SDS011;42987;52.916;6.542;2023-04-29T05:49:01;28.95;;;23.02;;
57107;SDS011;42987;52.916;6.542;2023-04-29T05:51:27;28.48;;;22.95;;
57107;SDS011;42987;52.916;6.542;2023-04-29T05:53:53;24.65;;;21.85;;
57107;SDS011;42987;52.916;6.542;2023-04-29T05:56:19;31.00;;;22.95;;
57107;SDS011;42987;52.916;6.542;2023-04-29T05:58:49;29.38;;;23.30;;
57107;SDS011;42987;52.916;6.542;2023-04-29T06:01:15;31.80;;;22.58;;
57107;SDS011;42987;52.916;6.542;2023-04-29T06:03:41;24.85;;;22.02;;
57107;SDS011;42987;52.916;6.542;2023-04-29T06:06:08;28.10;;;22.02;;
57107;SDS011;42987;52.916;6.542;2023-04-29T06:08:34;26.42;;;21.45;;
57107;SDS011;42987;52.916;6.542;2023-04-29T06:10:59;25.52;;;21.02;;
57107;SDS011;42987;52.916;6.542;2023-04-29T06:13:26;23.77;;;20.02;;
57107;SDS011;42987;52.916;6.542;2023-04-29T06:15:52;24.35;;;19.52;;
57107;SDS011;42987;52.916;6.542;2023-04-29T06:18:17;23.08;;;20.08;;
57107;SDS011;42987;52.916;6.542;2023-04-29T06:20:44;24.77;;;20.08;;
57107;SDS011;42987;52.916;6.542;2023-04-29T06:23:10;25.23;;;19.67;;
57107;SDS011;42987;52.916;6.542;2023-04-29T06:25:36;23.63;;;19.58;;
57107;SDS011;42987;52.916;6.542;2023-04-29T06:28:02;23.38;;;19.40;;
57107;SDS011;42987;52.916;6.542;2023-04-29T06:30:28;22.27;;;18.80;;
57107;SDS011;42987;52.916;6.542;2023-04-29T06:32:54;23.70;;;18.00;;
57107;SDS011;42987;52.916;6.542;2023-04-29T06:35:19;23.27;;;18.73;;
57107;SDS011;42987;52.916;6.542;2023-04-29T06:37:46;24.58;;;18.23;;
57107;SDS011;42987;52.916;6.542;2023-04-29T06:40:12;22.77;;;17.15;;
57107;SDS011;42987;52.916;6.542;2023-04-29T06:42:38;22.77;;;17.90;;
57107;SDS011;42987;52.916;6.542;2023-04-29T06:45:04;19.60;;;16.45;;
57107;SDS011;42987;52.916;6.542;2023-04-29T06:47:31;19.92;;;16.38;;
57107;SDS011;42987;52.916;6.542;2023-04-29T06:49:57;18.50;;;16.38;;
57107;SDS011;42987;52.916;6.542;2023-04-29T06:52:22;19.27;;;16.20;;
57107;SDS011;42987;52.916;6.542;2023-04-29T06:54:49;19.17;;;16.00;;
57107;SDS011;42987;52.916;6.542;2023-04-29T06:57:17;19.85;;;15.70;;
57107;SDS011;42987;52.916;6.542;2023-04-29T06:59:43;22.52;;;15.80;;
57107;SDS011;42987;52.916;6.542;2023-04-29T07:02:08;17.90;;;14.68;;
57107;SDS011;42987;52.916;6.542;2023-04-29T07:04:34;19.40;;;15.30;;
57107;SDS011;42987;52.916;6.542;2023-04-29T07:07:01;19.05;;;14.88;;
57107;SDS011;42987;52.916;6.542;2023-04-29T07:09:27;21.00;;;14.68;;
57107;SDS011;42987;52.916;6.542;2023-04-29T07:11:56;17.23;;;14.48;;
57107;SDS011;42987;52.916;6.542;2023-04-29T07:14:22;18.10;;;14.15;;
57107;SDS011;42987;52.916;6.542;2023-04-29T07:16:57;16.83;;;13.88;;
57107;SDS011;42987;52.916;6.542;2023-04-29T07:19:22;17.30;;;13.35;;
57107;SDS011;42987;52.916;6.542;2023-04-29T07:21:48;16.95;;;13.57;;
57107;SDS011;42987;52.916;6.542;2023-04-29T07:24:14;17.75;;;13.50;;
57107;SDS011;42987;52.916;6.542;2023-04-29T07:26:41;15.13;;;13.23;;
57107;SDS011;42987;52.916;6.542;2023-04-29T07:29:09;13.98;;;12.35;;
57107;SDS011;42987;52.916;6.542;2023-04-29T07:31:35;14.55;;;13.02;;
57107;SDS011;42987;52.916;6.542;2023-04-29T07:34:00;16.85;;;12.77;;
57107;SDS011;42987;52.916;6.542;2023-04-29T07:36:26;14.32;;;12.63;;
57107;SDS011;42987;52.916;6.542;2023-04-29T07:38:52;14.93;;;11.85;;
57107;SDS011;42987;52.916;6.542;2023-04-29T07:41:21;14.43;;;11.75;;
57107;SDS011;42987;52.916;6.542;2023-04-29T07:43:47;14.90;;;11.95;;
57107;SDS011;42987;52.916;6.542;2023-04-29T07:46:13;13.68;;;11.60;;
57107;SDS011;42987;52.916;6.542;2023-04-29T07:48:40;13.15;;;11.15;;
57107;SDS011;42987;52.916;6.542;2023-04-29T07:51:06;15.93;;;12.77;;
57107;SDS011;42987;52.916;6.542;2023-04-29T07:53:38;12.98;;;10.98;;
57107;SDS011;42987;52.916;6.542;2023-04-29T07:56:05;12.80;;;11.00;;
57107;SDS011;42987;52.916;6.542;2023-04-29T07:58:32;14.88;;;10.95;;
57107;SDS011;42987;52.916;6.542;2023-04-29T08:01:06;15.50;;;11.73;;
57107;SDS011;42987;52.916;6.542;2023-04-29T08:03:34;15.40;;;12.20;;
57107;SDS011;42987;52.916;6.542;2023-04-29T08:06:03;14.00;;;11.18;;
57107;SDS011;42987;52.916;6.542;2023-04-29T08:08:29;13.32;;;11.57;;
57107;SDS011;42987;52.916;6.542;2023-04-29T08:10:55;13.57;;;11.07;;
57107;SDS011;42987;52.916;6.542;2023-04-29T08:13:21;13.40;;;11.27;;
57107;SDS011;42987;52.916;6.542;2023-04-29T08:15:47;16.10;;;12.25;;
57107;SDS011;42987;52.916;6.542;2023-04-29T08:18:13;13.55;;;11.40;;
57107;SDS011;42987;52.916;6.542;2023-04-29T08:20:38;14.75;;;12.32;;
57107;SDS011;42987;52.916;6.542;2023-04-29T08:23:04;14.25;;;12.13;;
57107;SDS011;42987;52.916;6.542;2023-04-29T08:25:30;13.00;;;11.30;;
57107;SDS011;42987;52.916;6.542;2023-04-29T08:27:56;16.48;;;11.50;;
57107;SDS011;42987;52.916;6.542;2023-04-29T08:30:21;12.43;;;10.95;;
57107;SDS011;42987;52.916;6.542;2023-04-29T08:32:50;15.32;;;11.90;;
57107;SDS011;42987;52.916;6.542;2023-04-29T08:35:16;15.18;;;10.80;;
57107;SDS011;42987;52.916;6.542;2023-04-29T08:37:41;16.85;;;12.05;;
57107;SDS011;42987;52.916;6.542;2023-04-29T08:40:08;13.52;;;10.77;;
57107;SDS011;42987;52.916;6.542;2023-04-29T08:42:35;12.40;;;10.52;;
57107;SDS011;42987;52.916;6.542;2023-04-29T08:45:01;12.40;;;11.10;;
57107;SDS011;42987;52.916;6.542;2023-04-29T08:47:32;12.10;;;10.85;;
57107;SDS011;42987;52.916;6.542;2023-04-29T08:50:04;12.45;;;10.30;;
57107;SDS011;42987;52.916;6.542;2023-04-29T08:52:31;13.18;;;10.40;;
57107;SDS011;42987;52.916;6.542;2023-04-29T08:54:57;13.85;;;10.93;;
57107;SDS011;42987;52.916;6.542;2023-04-29T08:57:25;11.45;;;9.40;;
57107;SDS011;42987;52.916;6.542;2023-04-29T08:59:53;14.30;;;9.23;;
57107;SDS011;42987;52.916;6.542;2023-04-29T09:02:19;13.07;;;8.88;;
57107;SDS011;42987;52.916;6.542;2023-04-29T09:04:52;12.75;;;8.80;;
57107;SDS011;42987;52.916;6.542;2023-04-29T09:07:20;10.60;;;9.38;;
57107;SDS011;42987;52.916;6.542;2023-04-29T09:09:47;11.55;;;9.48;;
57107;SDS011;42987;52.916;6.542;2023-04-29T09:12:13;10.68;;;8.90;;
57107;SDS011;42987;52.916;6.542;2023-04-29T09:14:39;12.57;;;8.57;;
57107;SDS011;42987;52.916;6.542;2023-04-29T09:17:05;14.25;;;9.27;;
57107;SDS011;42987;52.916;6.542;2023-04-29T09:19:31;12.93;;;9.07;;
57107;SDS011;42987;52.916;6.542;2023-04-29T09:22:02;13.35;;;9.15;;
57107;SDS011;42987;52.916;6.542;2023-04-29T09:26:56;10.48;;;8.60;;
57107;SDS011;42987;52.916;6.542;2023-04-29T09:29:23;11.57;;;8.52;;
57107;SDS011;42987;52.916;6.542;2023-04-29T09:31:51;11.05;;;8.63;;
57107;SDS011;42987;52.916;6.542;2023-04-29T09:34:18;13.00;;;8.93;;
57107;SDS011;42987;52.916;6.542;2023-04-29T09:36:56;14.57;;;10.10;;
57107;SDS011;42987;52.916;6.542;2023-04-29T09:39:26;10.00;;;8.52;;
57107;SDS011;42987;52.916;6.542;2023-04-29T09:42:01;11.02;;;8.85;;
57107;SDS011;42987;52.916;6.542;2023-04-29T09:44:34;12.65;;;9.15;;
57107;SDS011;42987;52.916;6.542;2023-04-29T09:49:32;13.40;;;9.55;;
57107;SDS011;42987;52.916;6.542;2023-04-29T09:52:08;11.00;;;8.48;;
57107;SDS011;42987;52.916;6.542;2023-04-29T09:54:39;10.52;;;8.70;;
57107;SDS011;42987;52.916;6.542;2023-04-29T09:57:07;11.00;;;9.00;;
57107;SDS011;42987;52.916;6.542;2023-04-29T09:59:35;13.75;;;9.73;;
57107;SDS011;42987;52.916;6.542;2023-04-29T10:02:06;11.80;;;8.38;;
57107;SDS011;42987;52.916;6.542;2023-04-29T10:04:54;10.32;;;8.55;;
57107;SDS011;42987;52.916;6.542;2023-04-29T10:07:22;12.63;;;9.10;;
57107;SDS011;42987;52.916;6.542;2023-04-29T10:09:52;11.52;;;8.15;;
57107;SDS011;42987;52.916;6.542;2023-04-29T10:12:20;11.80;;;8.38;;
57107;SDS011;42987;52.916;6.542;2023-04-29T10:14:51;9.57;;;7.30;;
57107;SDS011;42987;52.916;6.542;2023-04-29T10:17:27;10.43;;;8.75;;
57107;SDS011;42987;52.916;6.542;2023-04-29T10:20:04;11.00;;;8.63;;
57107;SDS011;42987;52.916;6.542;2023-04-29T10:22:52;9.63;;;7.57;;
57107;SDS011;42987;52.916;6.542;2023-04-29T10:25:19;14.60;;;8.38;;
57107;SDS011;42987;52.916;6.542;2023-04-29T10:27:46;10.27;;;7.68;;
57107;SDS011;42987;52.916;6.542;2023-04-29T10:30:15;12.18;;;8.57;;
57107;SDS011;42987;52.916;6.542;2023-04-29T10:32:42;12.70;;;8.13;;
57107;SDS011;42987;52.916;6.542;2023-04-29T10:35:10;9.68;;;6.82;;
57107;SDS011;42987;52.916;6.542;2023-04-29T10:37:37;9.90;;;7.55;;
57107;SDS011;42987;52.916;6.542;2023-04-29T10:42:50;9.88;;;7.07;;
57107;SDS011;42987;52.916;6.542;2023-04-29T10:45:26;9.85;;;6.22;;
57107;SDS011;42987;52.916;6.542;2023-04-29T10:50:39;8.63;;;7.10;;
57107;SDS011;42987;52.916;6.542;2023-04-29T10:53:11;8.48;;;7.13;;
57107;SDS011;42987;52.916;6.542;2023-04-29T10:55:38;9.73;;;6.60;;
57107;SDS011;42987;52.916;6.542;2023-04-29T10:58:05;11.32;;;5.85;;
57107;SDS011;42987;52.916;6.542;2023-04-29T11:01:05;7.93;;;5.78;;
57107;SDS011;42987;52.916;6.542;2023-04-29T11:09:11;8.40;;;6.13;;
57107;SDS011;42987;52.916;6.542;2023-04-29T11:17:07;9.25;;;5.45;;
57107;SDS011;42987;52.916;6.542;2023-04-29T11:19:34;9.90;;;6.15;;
57107;SDS011;42987;52.916;6.542;2023-04-29T11:22:08;10.27;;;6.25;;
57107;SDS011;42987;52.916;6.542;2023-04-29T11:24:53;7.40;;;5.78;;
57107;SDS011;42987;52.916;6.542;2023-04-29T11:30:00;6.65;;;4.70;;
57107;SDS011;42987;52.916;6.542;2023-04-29T11:32:38;7.00;;;4.45;;
57107;SDS011;42987;52.916;6.542;2023-04-29T11:35:09;6.95;;;4.82;;
57107;SDS011;42987;52.916;6.542;2023-04-29T11:37:40;7.65;;;4.80;;
57107;SDS011;42987;52.916;6.542;2023-04-29T11:40:07;8.45;;;5.28;;
57107;SDS011;42987;52.916;6.542;2023-04-29T11:42:34;7.80;;;6.38;;
57107;SDS011;42987;52.916;6.542;2023-04-29T11:45:04;8.50;;;4.10;;
57107;SDS011;42987;52.916;6.542;2023-04-29T11:47:31;9.25;;;4.70;;
57107;SDS011;42987;52.916;6.542;2023-04-29T11:52:37;7.38;;;4.35;;
57107;SDS011;42987;52.916;6.542;2023-04-29T11:55:05;7.45;;;4.57;;
57107;SDS011;42987;52.916;6.542;2023-04-29T11:57:34;7.13;;;4.97;;
57107;SDS011;42987;52.916;6.542;2023-04-29T12:00:00;8.10;;;5.82;;
57107;SDS011;42987;52.916;6.542;2023-04-29T12:02:30;7.45;;;4.65;;
57107;SDS011;42987;52.916;6.542;2023-04-29T12:04:57;7.10;;;5.35;;
57107;SDS011;42987;52.916;6.542;2023-04-29T12:07:25;9.13;;;6.07;;
57107;SDS011;42987;52.916;6.542;2023-04-29T12:09:51;9.80;;;5.85;;
57107;SDS011;42987;52.916;6.542;2023-04-29T12:12:17;7.57;;;4.53;;
57107;SDS011;42987;52.916;6.542;2023-04-29T12:14:43;7.65;;;4.90;;
57107;SDS011;42987;52.916;6.542;2023-04-29T12:17:09;7.03;;;4.90;;
57107;SDS011;42987;52.916;6.542;2023-04-29T12:19:36;6.47;;;4.20;;
57107;SDS011;42987;52.916;6.542;2023-04-29T12:22:03;8.27;;;4.65;;
57107;SDS011;42987;52.916;6.542;2023-04-29T12:24:35;8.07;;;3.78;;
57107;SDS011;42987;52.916;6.542;2023-04-29T12:27:02;6.28;;;3.58;;
57107;SDS011;42987;52.916;6.542;2023-04-29T12:29:30;6.10;;;3.38;;
57107;SDS011;42987;52.916;6.542;2023-04-29T12:31:57;6.15;;;3.40;;
57107;SDS011;42987;52.916;6.542;2023-04-29T12:34:30;6.47;;;3.65;;
57107;SDS011;42987;52.916;6.542;2023-04-29T12:36:59;5.72;;;2.95;;
57107;SDS011;42987;52.916;6.542;2023-04-29T12:39:29;4.18;;;2.80;;
57107;SDS011;42987;52.916;6.542;2023-04-29T12:41:58;5.70;;;3.13;;
57107;SDS011;42987;52.916;6.542;2023-04-29T12:44:33;5.95;;;2.90;;
57107;SDS011;42987;52.916;6.542;2023-04-29T12:47:06;5.75;;;3.38;;
57107;SDS011;42987;52.916;6.542;2023-04-29T12:49:32;5.38;;;3.20;;
57107;SDS011;42987;52.916;6.542;2023-04-29T12:51:58;6.28;;;3.05;;
57107;SDS011;42987;52.916;6.542;2023-04-29T12:54:24;5.28;;;3.20;;
57107;SDS011;42987;52.916;6.542;2023-04-29T12:56:50;4.25;;;2.75;;
57107;SDS011;42987;52.916;6.542;2023-04-29T12:59:16;3.80;;;2.40;;
57107;SDS011;42987;52.916;6.542;2023-04-29T13:01:42;5.68;;;3.28;;
57107;SDS011;42987;52.916;6.542;2023-04-29T13:04:07;6.05;;;3.20;;
57107;SDS011;42987;52.916;6.542;2023-04-29T13:06:35;4.80;;;3.10;;
57107;SDS011;42987;52.916;6.542;2023-04-29T13:09:04;4.32;;;2.80;;
57107;SDS011;42987;52.916;6.542;2023-04-29T13:11:36;5.20;;;3.20;;
57107;SDS011;42987;52.916;6.542;2023-04-29T13:14:03;5.82;;;3.20;;
57107;SDS011;42987;52.916;6.542;2023-04-29T13:16:32;7.93;;;3.97;;
57107;SDS011;42987;52.916;6.542;2023-04-29T13:18:59;5.63;;;3.05;;
57107;SDS011;42987;52.916;6.542;2023-04-29T13:21:27;6.63;;;3.13;;
57107;SDS011;42987;52.916;6.542;2023-04-29T13:23:54;5.53;;;3.38;;
57107;SDS011;42987;52.916;6.542;2023-04-29T13:26:20;7.18;;;3.80;;
57107;SDS011;42987;52.916;6.542;2023-04-29T13:28:47;5.18;;;2.92;;
57107;SDS011;42987;52.916;6.542;2023-04-29T13:31:13;4.70;;;2.67;;
57107;SDS011;42987;52.916;6.542;2023-04-29T13:33:39;5.60;;;3.25;;
57107;SDS011;42987;52.916;6.542;2023-04-29T13:36:05;6.47;;;2.58;;
57107;SDS011;42987;52.916;6.542;2023-04-29T13:38:31;4.88;;;2.28;;
57107;SDS011;42987;52.916;6.542;2023-04-29T13:40:57;6.28;;;2.28;;
57107;SDS011;42987;52.916;6.542;2023-04-29T13:43:23;4.18;;;2.50;;
57107;SDS011;42987;52.916;6.542;2023-04-29T13:45:49;5.43;;;2.13;;
57107;SDS011;42987;52.916;6.542;2023-04-29T13:48:15;9.75;;;3.53;;
57107;SDS011;42987;52.916;6.542;2023-04-29T13:50:41;5.55;;;2.80;;
57107;SDS011;42987;52.916;6.542;2023-04-29T13:53:08;5.10;;;2.40;;
57107;SDS011;42987;52.916;6.542;2023-04-29T13:55:34;5.60;;;2.10;;
57107;SDS011;42987;52.916;6.542;2023-04-29T13:58:00;3.20;;;1.63;;
57107;SDS011;42987;52.916;6.542;2023-04-29T14:00:26;3.95;;;1.50;;
57107;SDS011;42987;52.916;6.542;2023-04-29T14:02:52;8.73;;;2.45;;
57107;SDS011;42987;52.916;6.542;2023-04-29T14:05:18;3.75;;;1.90;;
57107;SDS011;42987;52.916;6.542;2023-04-29T14:07:43;4.18;;;1.45;;
57107;SDS011;42987;52.916;6.542;2023-04-29T14:10:09;2.88;;;1.65;;
57107;SDS011;42987;52.916;6.542;2023-04-29T14:12:35;4.03;;;2.00;;
57107;SDS011;42987;52.916;6.542;2023-04-29T14:15:01;2.58;;;1.42;;
57107;SDS011;42987;52.916;6.542;2023-04-29T14:17:27;3.20;;;1.60;;
57107;SDS011;42987;52.916;6.542;2023-04-29T14:19:53;3.28;;;1.70;;
57107;SDS011;42987;52.916;6.542;2023-04-29T14:22:22;4.35;;;1.80;;
57107;SDS011;42987;52.916;6.542;2023-04-29T14:24:48;5.55;;;2.10;;
57107;SDS011;42987;52.916;6.542;2023-04-29T14:27:13;3.60;;;1.80;;
57107;SDS011;42987;52.916;6.542;2023-04-29T14:29:39;3.85;;;1.70;;
57107;SDS011;42987;52.916;6.542;2023-04-29T14:32:05;4.65;;;2.15;;
57107;SDS011;42987;52.916;6.542;2023-04-29T14:34:31;4.25;;;1.92;;
57107;SDS011;42987;52.916;6.542;2023-04-29T14:36:57;5.57;;;2.35;;
57107;SDS011;42987;52.916;6.542;2023-04-29T14:39:23;5.80;;;2.38;;
57107;SDS011;42987;52.916;6.542;2023-04-29T14:41:53;4.60;;;2.65;;
57107;SDS011;42987;52.916;6.542;2023-04-29T14:44:19;5.27;;;3.60;;
57107;SDS011;42987;52.916;6.542;2023-04-29T14:46:45;5.30;;;3.10;;
57107;SDS011;42987;52.916;6.542;2023-04-29T14:49:11;6.75;;;3.95;;
57107;SDS011;42987;52.916;6.542;2023-04-29T14:51:37;6.68;;;4.22;;
57107;SDS011;42987;52.916;6.542;2023-04-29T14:54:03;6.30;;;4.47;;
57107;SDS011;42987;52.916;6.542;2023-04-29T14:56:29;7.20;;;4.45;;
57107;SDS011;42987;52.916;6.542;2023-04-29T14:58:55;12.73;;;5.15;;
57107;SDS011;42987;52.916;6.542;2023-04-29T15:01:20;7.85;;;6.05;;
57107;SDS011;42987;52.916;6.542;2023-04-29T15:03:46;10.48;;;6.03;;
57107;SDS011;42987;52.916;6.542;2023-04-29T15:06:12;8.07;;;6.18;;
57107;SDS011;42987;52.916;6.542;2023-04-29T15:08:38;7.45;;;6.65;;